sensor_id;sensor_type;location;lat;lon;timestamp;temperature;humidity
59881;DHT22;45751;51.380;10.326;2024-03-25T00:00:19;3.50;99.90
59881;DHT22;45751;51.380;10.326;2024-03-25T00:02:46;3.60;99.90
59881;DHT22;45751;51.380;10.326;2024-03-25T00:05:12;3.70;99.90
59881;DHT22;45751;51.380;10.326;2024-03-25T00:07:40;3.60;99.90
59881;DHT22;45751;51.380;10.326;2024-03-25T00:10:07;3.70;99.90
59881;DHT22;45751;51.380;10.326;2024-03-25T00:12:34;3.60;99.90
59881;DHT22;45751;51.380;10.326;2024-03-25T00:15:00;3.60;99.90
59881;DHT22;45751;51.380;10.326;2024-03-25T00:17:26;3.70;99.90
59881;DHT22;45751;51.380;10.326;2024-03-25T00:19:52;3.70;99.90
59881;DHT22;45751;51.380;10.326;2024-03-25T00:22:21;3.70;99.90
59881;DHT22;45751;51.380;10.326;2024-03-25T00:24:48;3.70;99.90
59881;DHT22;45751;51.380;10.326;2024-03-25T00:27:14;3.70;99.90
59881;DHT22;45751;51.380;10.326;2024-03-25T00:29:40;3.70;99.90
59881;DHT22;45751;51.380;10.326;2024-03-25T00:32:06;3.70;99.90
59881;DHT22;45751;51.380;10.326;2024-03-25T00:34:33;3.70;99.90
59881;DHT22;45751;51.380;10.326;2024-03-25T00:36:59;3.70;99.90
59881;DHT22;45751;51.380;10.326;2024-03-25T00:39:25;3.70;99.90
59881;DHT22;45751;51.380;10.326;2024-03-25T00:41:51;3.70;99.90
59881;DHT22;45751;51.380;10.326;2024-03-25T00:44:17;3.70;99.90
59881;DHT22;45751;51.380;10.326;2024-03-25T00:46:43;3.80;99.90
59881;DHT22;45751;51.380;10.326;2024-03-25T00:49:10;3.80;99.90
59881;DHT22;45751;51.380;10.326;2024-03-25T00:51:36;3.80;99.90
59881;DHT22;45751;51.380;10.326;2024-03-25T00:54:03;3.80;99.90
59881;DHT22;45751;51.380;10.326;2024-03-25T00:56:29;3.80;99.90
59881;DHT22;45751;51.380;10.326;2024-03-25T00:58:55;3.80;99.90
59881;DHT22;45751;51.380;10.326;2024-03-25T01:01:22;3.70;99.90
59881;DHT22;45751;51.380;10.326;2024-03-25T01:03:48;3.70;99.90
59881;DHT22;45751;51.380;10.326;2024-03-25T01:06:14;3.70;99.90
59881;DHT22;45751;51.380;10.326;2024-03-25T01:08:40;3.70;99.90
59881;DHT22;45751;51.380;10.326;2024-03-25T01:11:05;3.60;99.90
59881;DHT22;45751;51.380;10.326;2024-03-25T01:13:31;3.60;99.90
59881;DHT22;45751;51.380;10.326;2024-03-25T01:15:57;3.60;99.90
59881;DHT22;45751;51.380;10.326;2024-03-25T01:18:23;3.60;99.90
59881;DHT22;45751;51.380;10.326;2024-03-25T01:20:48;3.50;99.90
59881;DHT22;45751;51.380;10.326;2024-03-25T01:23:15;3.50;99.90
59881;DHT22;45751;51.380;10.326;2024-03-25T01:25:41;3.50;99.90
59881;DHT22;45751;51.380;10.326;2024-03-25T01:28:07;3.50;99.90
59881;DHT22;45751;51.380;10.326;2024-03-25T01:30:33;3.50;99.90
59881;DHT22;45751;51.380;10.326;2024-03-25T01:33:01;3.40;99.90
59881;DHT22;45751;51.380;10.326;2024-03-25T01:35:27;3.50;99.90
59881;DHT22;45751;51.380;10.326;2024-03-25T01:37:54;3.40;99.90
59881;DHT22;45751;51.380;10.326;2024-03-25T01:40:19;3.50;99.90
59881;DHT22;45751;51.380;10.326;2024-03-25T01:42:58;3.50;99.90
59881;DHT22;45751;51.380;10.326;2024-03-25T01:45:25;3.50;99.90
59881;DHT22;45751;51.380;10.326;2024-03-25T01:47:52;3.50;99.90
59881;DHT22;45751;51.380;10.326;2024-03-25T01:50:18;3.50;99.90
59881;DHT22;45751;51.380;10.326;2024-03-25T01:52:44;3.50;99.90
59881;DHT22;45751;51.380;10.326;2024-03-25T01:55:15;3.50;99.90
59881;DHT22;45751;51.380;10.326;2024-03-25T01:57:45;3.50;99.90
59881;DHT22;45751;51.380;10.326;2024-03-25T02:00:12;3.50;99.90
59881;DHT22;45751;51.380;10.326;2024-03-25T02:02:45;3.50;99.90
59881;DHT22;45751;51.380;10.326;2024-03-25T02:05:16;3.50;99.90
59881;DHT22;45751;51.380;10.326;2024-03-25T02:07:43;3.50;99.90
59881;DHT22;45751;51.380;10.326;2024-03-25T02:10:09;3.50;99.90
59881;DHT22;45751;51.380;10.326;2024-03-25T02:12:42;3.50;99.90
59881;DHT22;45751;51.380;10.326;2024-03-25T02:15:09;3.50;99.90
59881;DHT22;45751;51.380;10.326;2024-03-25T02:17:35;3.50;99.90
59881;DHT22;45751;51.380;10.326;2024-03-25T02:20:02;3.50;99.90
59881;DHT22;45751;51.380;10.326;2024-03-25T02:22:34;3.50;99.90
59881;DHT22;45751;51.380;10.326;2024-03-25T02:25:06;3.50;99.90
59881;DHT22;45751;51.380;10.326;2024-03-25T02:27:32;3.50;99.90
59881;DHT22;45751;51.380;10.326;2024-03-25T02:30:09;3.50;99.90
59881;DHT22;45751;51.380;10.326;2024-03-25T02:32:36;3.50;99.90
59881;DHT22;45751;51.380;10.326;2024-03-25T02:35:04;3.50;99.90
59881;DHT22;45751;51.380;10.326;2024-03-25T02:37:30;3.50;99.90
59881;DHT22;45751;51.380;10.326;2024-03-25T02:39:59;3.50;99.90
59881;DHT22;45751;51.380;10.326;2024-03-25T02:42:26;3.50;99.90
59881;DHT22;45751;51.380;10.326;2024-03-25T02:44:56;3.50;99.90
59881;DHT22;45751;51.380;10.326;2024-03-25T02:47:22;3.60;99.90
59881;DHT22;45751;51.380;10.326;2024-03-25T02:49:48;3.50;99.90
59881;DHT22;45751;51.380;10.326;2024-03-25T02:52:14;3.60;99.90
59881;DHT22;45751;51.380;10.326;2024-03-25T02:54:40;3.50;99.90
59881;DHT22;45751;51.380;10.326;2024-03-25T02:57:05;3.50;99.90
59881;DHT22;45751;51.380;10.326;2024-03-25T02:59:31;3.50;99.90
59881;DHT22;45751;51.380;10.326;2024-03-25T03:01:57;3.50;99.90
59881;DHT22;45751;51.380;10.326;2024-03-25T03:04:22;3.50;99.90
59881;DHT22;45751;51.380;10.326;2024-03-25T03:06:48;3.50;99.90
59881;DHT22;45751;51.380;10.326;2024-03-25T03:09:14;3.50;99.90
59881;DHT22;45751;51.380;10.326;2024-03-25T03:11:41;3.60;99.90
59881;DHT22;45751;51.380;10.326;2024-03-25T03:14:06;3.50;99.90
59881;DHT22;45751;51.380;10.326;2024-03-25T03:16:32;3.50;99.90
59881;DHT22;45751;51.380;10.326;2024-03-25T03:18:58;3.50;99.90
59881;DHT22;45751;51.380;10.326;2024-03-25T03:21:24;3.60;99.90
59881;DHT22;45751;51.380;10.326;2024-03-25T03:23:49;3.50;99.90
59881;DHT22;45751;51.380;10.326;2024-03-25T03:26:15;3.60;99.90
59881;DHT22;45751;51.380;10.326;2024-03-25T03:28:41;3.60;99.90
59881;DHT22;45751;51.380;10.326;2024-03-25T03:31:07;3.50;99.90
59881;DHT22;45751;51.380;10.326;2024-03-25T03:33:33;3.50;99.90
59881;DHT22;45751;51.380;10.326;2024-03-25T03:35:58;3.50;99.90
59881;DHT22;45751;51.380;10.326;2024-03-25T03:38:24;3.60;99.90
59881;DHT22;45751;51.380;10.326;2024-03-25T03:41:00;3.50;99.90
59881;DHT22;45751;51.380;10.326;2024-03-25T03:43:26;3.60;99.90
59881;DHT22;45751;51.380;10.326;2024-03-25T03:45:52;3.50;99.90
59881;DHT22;45751;51.380;10.326;2024-03-25T03:48:18;3.50;99.90
59881;DHT22;45751;51.380;10.326;2024-03-25T03:50:44;3.60;99.90
59881;DHT22;45751;51.380;10.326;2024-03-25T03:53:09;3.50;99.90
59881;DHT22;45751;51.380;10.326;2024-03-25T03:55:36;3.50;99.90
59881;DHT22;45751;51.380;10.326;2024-03-25T03:58:02;3.50;99.90
59881;DHT22;45751;51.380;10.326;2024-03-25T04:00:28;3.40;99.90
59881;DHT22;45751;51.380;10.326;2024-03-25T04:02:53;3.40;99.90
59881;DHT22;45751;51.380;10.326;2024-03-25T04:05:19;3.40;99.90
59881;DHT22;45751;51.380;10.326;2024-03-25T04:07:45;3.30;99.90
59881;DHT22;45751;51.380;10.326;2024-03-25T04:10:11;3.40;99.90
59881;DHT22;45751;51.380;10.326;2024-03-25T04:12:37;3.30;99.90
59881;DHT22;45751;51.380;10.326;2024-03-25T04:15:04;3.40;99.90
59881;DHT22;45751;51.380;10.326;2024-03-25T04:17:30;3.20;99.90
59881;DHT22;45751;51.380;10.326;2024-03-25T04:19:59;3.30;99.90
59881;DHT22;45751;51.380;10.326;2024-03-25T04:22:31;3.20;99.90
59881;DHT22;45751;51.380;10.326;2024-03-25T04:24:57;3.10;99.90
59881;DHT22;45751;51.380;10.326;2024-03-25T04:27:23;3.10;99.90
59881;DHT22;45751;51.380;10.326;2024-03-25T04:29:50;3.00;99.90
59881;DHT22;45751;51.380;10.326;2024-03-25T04:32:16;3.00;99.90
59881;DHT22;45751;51.380;10.326;2024-03-25T04:34:41;2.80;99.90
59881;DHT22;45751;51.380;10.326;2024-03-25T04:37:08;2.90;99.90
59881;DHT22;45751;51.380;10.326;2024-03-25T04:39:35;2.80;99.90
59881;DHT22;45751;51.380;10.326;2024-03-25T04:42:01;2.80;99.90
59881;DHT22;45751;51.380;10.326;2024-03-25T04:44:27;2.80;99.90
59881;DHT22;45751;51.380;10.326;2024-03-25T04:46:53;2.80;99.90
59881;DHT22;45751;51.380;10.326;2024-03-25T04:49:19;2.70;99.90
59881;DHT22;45751;51.380;10.326;2024-03-25T04:51:45;2.70;99.90
59881;DHT22;45751;51.380;10.326;2024-03-25T04:54:10;2.70;99.90
59881;DHT22;45751;51.380;10.326;2024-03-25T04:56:36;2.70;99.90
59881;DHT22;45751;51.380;10.326;2024-03-25T04:59:02;2.70;99.90
59881;DHT22;45751;51.380;10.326;2024-03-25T05:01:28;2.70;99.90
59881;DHT22;45751;51.380;10.326;2024-03-25T05:03:54;2.70;99.90
59881;DHT22;45751;51.380;10.326;2024-03-25T05:06:19;2.60;99.90
59881;DHT22;45751;51.380;10.326;2024-03-25T05:08:45;2.70;99.90
59881;DHT22;45751;51.380;10.326;2024-03-25T05:11:13;2.70;99.90
59881;DHT22;45751;51.380;10.326;2024-03-25T05:13:39;2.80;99.90
59881;DHT22;45751;51.380;10.326;2024-03-25T05:16:05;2.70;99.90
59881;DHT22;45751;51.380;10.326;2024-03-25T05:18:31;2.70;99.90
59881;DHT22;45751;51.380;10.326;2024-03-25T05:20:57;2.80;99.90
59881;DHT22;45751;51.380;10.326;2024-03-25T05:23:22;2.80;99.90
59881;DHT22;45751;51.380;10.326;2024-03-25T05:25:48;2.80;99.90
59881;DHT22;45751;51.380;10.326;2024-03-25T05:28:14;2.90;99.90
59881;DHT22;45751;51.380;10.326;2024-03-25T05:30:39;2.70;99.90
59881;DHT22;45751;51.380;10.326;2024-03-25T05:33:05;2.80;99.90
59881;DHT22;45751;51.380;10.326;2024-03-25T05:35:31;2.80;99.90
59881;DHT22;45751;51.380;10.326;2024-03-25T05:37:59;2.90;99.90
59881;DHT22;45751;51.380;10.326;2024-03-25T05:40:25;2.90;99.90
59881;DHT22;45751;51.380;10.326;2024-03-25T05:42:52;2.90;99.90
59881;DHT22;45751;51.380;10.326;2024-03-25T05:45:18;2.90;99.90
59881;DHT22;45751;51.380;10.326;2024-03-25T05:47:43;2.90;99.90
59881;DHT22;45751;51.380;10.326;2024-03-25T05:50:09;2.90;99.90
59881;DHT22;45751;51.380;10.326;2024-03-25T05:52:36;2.90;99.90
59881;DHT22;45751;51.380;10.326;2024-03-25T05:55:02;2.90;99.90
59881;DHT22;45751;51.380;10.326;2024-03-25T05:57:27;2.90;99.90
59881;DHT22;45751;51.380;10.326;2024-03-25T05:59:53;3.00;99.90
59881;DHT22;45751;51.380;10.326;2024-03-25T06:02:19;3.00;99.90
59881;DHT22;45751;51.380;10.326;2024-03-25T06:04:44;2.90;99.90
59881;DHT22;45751;51.380;10.326;2024-03-25T06:07:10;2.90;99.90
59881;DHT22;45751;51.380;10.326;2024-03-25T06:09:36;2.90;99.90
59881;DHT22;45751;51.380;10.326;2024-03-25T06:12:02;2.90;99.90
59881;DHT22;45751;51.380;10.326;2024-03-25T06:14:28;2.80;99.90
59881;DHT22;45751;51.380;10.326;2024-03-25T06:16:54;2.80;99.90
59881;DHT22;45751;51.380;10.326;2024-03-25T06:19:20;2.80;99.90
59881;DHT22;45751;51.380;10.326;2024-03-25T06:21:46;2.80;99.90
59881;DHT22;45751;51.380;10.326;2024-03-25T06:24:12;2.80;99.90
59881;DHT22;45751;51.380;10.326;2024-03-25T06:26:37;2.80;99.90
59881;DHT22;45751;51.380;10.326;2024-03-25T06:29:04;2.70;99.90
59881;DHT22;45751;51.380;10.326;2024-03-25T06:31:29;2.70;99.90
59881;DHT22;45751;51.380;10.326;2024-03-25T06:34:14;2.70;99.90
59881;DHT22;45751;51.380;10.326;2024-03-25T06:36:40;2.70;99.90
59881;DHT22;45751;51.380;10.326;2024-03-25T06:39:06;2.70;99.90
59881;DHT22;45751;51.380;10.326;2024-03-25T06:41:32;2.60;99.90
59881;DHT22;45751;51.380;10.326;2024-03-25T06:43:58;2.60;99.90
59881;DHT22;45751;51.380;10.326;2024-03-25T06:46:24;2.60;99.90
59881;DHT22;45751;51.380;10.326;2024-03-25T06:48:49;2.60;99.90
59881;DHT22;45751;51.380;10.326;2024-03-25T06:51:17;2.70;99.90
59881;DHT22;45751;51.380;10.326;2024-03-25T06:53:44;2.70;99.90
59881;DHT22;45751;51.380;10.326;2024-03-25T06:56:10;2.70;99.90
59881;DHT22;45751;51.380;10.326;2024-03-25T06:58:36;2.80;99.90
59881;DHT22;45751;51.380;10.326;2024-03-25T07:01:06;2.80;99.90
59881;DHT22;45751;51.380;10.326;2024-03-25T07:03:32;2.80;99.90
59881;DHT22;45751;51.380;10.326;2024-03-25T07:05:59;2.80;99.90
59881;DHT22;45751;51.380;10.326;2024-03-25T07:08:26;2.90;99.90
59881;DHT22;45751;51.380;10.326;2024-03-25T07:10:53;2.80;99.90
59881;DHT22;45751;51.380;10.326;2024-03-25T07:13:20;2.80;99.90
59881;DHT22;45751;51.380;10.326;2024-03-25T07:15:46;2.80;99.90
59881;DHT22;45751;51.380;10.326;2024-03-25T07:18:11;2.90;99.90
59881;DHT22;45751;51.380;10.326;2024-03-25T07:20:39;2.90;99.90
59881;DHT22;45751;51.380;10.326;2024-03-25T07:23:05;2.90;99.90
59881;DHT22;45751;51.380;10.326;2024-03-25T07:25:31;2.80;99.90
59881;DHT22;45751;51.380;10.326;2024-03-25T07:27:57;2.90;99.90
59881;DHT22;45751;51.380;10.326;2024-03-25T07:30:22;2.90;99.90
59881;DHT22;45751;51.380;10.326;2024-03-25T07:32:51;2.80;99.90
59881;DHT22;45751;51.380;10.326;2024-03-25T07:35:16;2.90;99.90
59881;DHT22;45751;51.380;10.326;2024-03-25T07:37:46;2.90;99.90
59881;DHT22;45751;51.380;10.326;2024-03-25T07:40:11;2.90;99.90
59881;DHT22;45751;51.380;10.326;2024-03-25T07:42:38;3.00;99.90
59881;DHT22;45751;51.380;10.326;2024-03-25T07:45:04;3.00;99.90
59881;DHT22;45751;51.380;10.326;2024-03-25T07:47:32;3.00;99.90
59881;DHT22;45751;51.380;10.326;2024-03-25T07:49:57;3.10;99.90
59881;DHT22;45751;51.380;10.326;2024-03-25T07:52:25;3.10;99.90
59881;DHT22;45751;51.380;10.326;2024-03-25T07:54:51;3.10;99.90
59881;DHT22;45751;51.380;10.326;2024-03-25T07:57:17;3.20;99.90
59881;DHT22;45751;51.380;10.326;2024-03-25T07:59:43;3.20;99.90
59881;DHT22;45751;51.380;10.326;2024-03-25T08:02:09;3.20;99.90
59881;DHT22;45751;51.380;10.326;2024-03-25T08:04:34;3.30;99.90
59881;DHT22;45751;51.380;10.326;2024-03-25T08:07:00;3.30;99.90
59881;DHT22;45751;51.380;10.326;2024-03-25T08:09:26;3.30;99.90
59881;DHT22;45751;51.380;10.326;2024-03-25T08:11:52;3.40;99.90
59881;DHT22;45751;51.380;10.326;2024-03-25T08:14:18;3.40;99.90
59881;DHT22;45751;51.380;10.326;2024-03-25T08:16:43;3.40;99.90
59881;DHT22;45751;51.380;10.326;2024-03-25T08:19:09;3.50;99.90
59881;DHT22;45751;51.380;10.326;2024-03-25T08:21:35;3.50;99.90
59881;DHT22;45751;51.380;10.326;2024-03-25T08:24:00;3.50;99.90
59881;DHT22;45751;51.380;10.326;2024-03-25T08:26:26;3.60;99.90
59881;DHT22;45751;51.380;10.326;2024-03-25T08:28:52;3.60;99.90
59881;DHT22;45751;51.380;10.326;2024-03-25T08:31:18;3.60;99.90
59881;DHT22;45751;51.380;10.326;2024-03-25T08:33:43;3.60;99.90
59881;DHT22;45751;51.380;10.326;2024-03-25T08:36:09;3.70;99.90
59881;DHT22;45751;51.380;10.326;2024-03-25T08:38:35;3.70;99.90
59881;DHT22;45751;51.380;10.326;2024-03-25T08:41:01;3.70;99.90
59881;DHT22;45751;51.380;10.326;2024-03-25T08:43:26;3.70;99.90
59881;DHT22;45751;51.380;10.326;2024-03-25T08:45:52;3.70;99.90
59881;DHT22;45751;51.380;10.326;2024-03-25T08:48:18;3.80;99.90
59881;DHT22;45751;51.380;10.326;2024-03-25T08:50:44;3.80;99.90
59881;DHT22;45751;51.380;10.326;2024-03-25T08:53:09;3.80;99.90
59881;DHT22;45751;51.380;10.326;2024-03-25T08:55:35;3.90;99.90
59881;DHT22;45751;51.380;10.326;2024-03-25T08:58:01;3.80;99.90
59881;DHT22;45751;51.380;10.326;2024-03-25T09:00:27;3.90;99.90
59881;DHT22;45751;51.380;10.326;2024-03-25T09:02:56;3.90;99.90
59881;DHT22;45751;51.380;10.326;2024-03-25T09:05:22;4.00;99.90
59881;DHT22;45751;51.380;10.326;2024-03-25T09:07:51;4.00;99.90
59881;DHT22;45751;51.380;10.326;2024-03-25T09:10:19;4.20;99.90
59881;DHT22;45751;51.380;10.326;2024-03-25T09:13:03;4.20;99.90
59881;DHT22;45751;51.380;10.326;2024-03-25T09:15:29;4.20;99.90
59881;DHT22;45751;51.380;10.326;2024-03-25T09:17:55;4.30;99.90
59881;DHT22;45751;51.380;10.326;2024-03-25T09:20:21;4.40;99.90
59881;DHT22;45751;51.380;10.326;2024-03-25T09:22:47;4.40;99.90
59881;DHT22;45751;51.380;10.326;2024-03-25T09:25:16;4.40;99.90
59881;DHT22;45751;51.380;10.326;2024-03-25T09:27:46;4.40;99.90
59881;DHT22;45751;51.380;10.326;2024-03-25T09:30:12;4.40;99.90
59881;DHT22;45751;51.380;10.326;2024-03-25T09:32:40;4.40;99.90
59881;DHT22;45751;51.380;10.326;2024-03-25T09:35:06;4.40;99.90
59881;DHT22;45751;51.380;10.326;2024-03-25T09:37:32;4.40;99.90
59881;DHT22;45751;51.380;10.326;2024-03-25T09:39:58;4.40;99.90
59881;DHT22;45751;51.380;10.326;2024-03-25T09:42:36;4.40;99.90
59881;DHT22;45751;51.380;10.326;2024-03-25T09:45:05;4.40;99.90
59881;DHT22;45751;51.380;10.326;2024-03-25T09:47:32;4.40;99.90
59881;DHT22;45751;51.380;10.326;2024-03-25T09:49:59;4.40;99.90
59881;DHT22;45751;51.380;10.326;2024-03-25T09:52:28;4.40;99.90
59881;DHT22;45751;51.380;10.326;2024-03-25T09:54:53;4.40;99.90
59881;DHT22;45751;51.380;10.326;2024-03-25T09:57:20;4.50;99.90
59881;DHT22;45751;51.380;10.326;2024-03-25T09:59:47;4.50;99.90
59881;DHT22;45751;51.380;10.326;2024-03-25T10:02:13;4.50;99.90
59881;DHT22;45751;51.380;10.326;2024-03-25T10:04:45;4.50;99.90
59881;DHT22;45751;51.380;10.326;2024-03-25T10:07:21;4.60;99.90
59881;DHT22;45751;51.380;10.326;2024-03-25T10:09:48;4.60;99.90
59881;DHT22;45751;51.380;10.326;2024-03-25T10:12:13;4.60;99.90
59881;DHT22;45751;51.380;10.326;2024-03-25T10:14:40;4.70;99.90
59881;DHT22;45751;51.380;10.326;2024-03-25T10:17:06;4.70;99.90
59881;DHT22;45751;51.380;10.326;2024-03-25T10:19:33;4.80;99.90
59881;DHT22;45751;51.380;10.326;2024-03-25T10:22:07;4.80;99.90
59881;DHT22;45751;51.380;10.326;2024-03-25T10:24:43;4.80;99.90
59881;DHT22;45751;51.380;10.326;2024-03-25T10:27:23;4.80;99.90
59881;DHT22;45751;51.380;10.326;2024-03-25T10:29:52;4.90;99.90
59881;DHT22;45751;51.380;10.326;2024-03-25T10:32:19;5.00;99.90
59881;DHT22;45751;51.380;10.326;2024-03-25T10:34:45;5.00;99.90
59881;DHT22;45751;51.380;10.326;2024-03-25T10:37:11;5.00;99.90
59881;DHT22;45751;51.380;10.326;2024-03-25T10:39:49;5.10;99.30
59881;DHT22;45751;51.380;10.326;2024-03-25T10:42:19;5.10;99.10
59881;DHT22;45751;51.380;10.326;2024-03-25T10:44:45;5.10;98.90
59881;DHT22;45751;51.380;10.326;2024-03-25T10:47:19;5.00;98.60
59881;DHT22;45751;51.380;10.326;2024-03-25T10:52:16;5.10;98.50
59881;DHT22;45751;51.380;10.326;2024-03-25T10:54:43;5.10;98.60
59881;DHT22;45751;51.380;10.326;2024-03-25T10:57:13;5.20;98.70
59881;DHT22;45751;51.380;10.326;2024-03-25T10:59:40;5.20;98.70
59881;DHT22;45751;51.380;10.326;2024-03-25T11:02:10;5.20;98.60
59881;DHT22;45751;51.380;10.326;2024-03-25T11:04:37;5.20;98.00
59881;DHT22;45751;51.380;10.326;2024-03-25T11:07:12;5.30;97.80
59881;DHT22;45751;51.380;10.326;2024-03-25T11:09:38;5.30;98.30
59881;DHT22;45751;51.380;10.326;2024-03-25T11:12:05;5.30;98.20
59881;DHT22;45751;51.380;10.326;2024-03-25T11:14:31;5.40;97.90
59881;DHT22;45751;51.380;10.326;2024-03-25T11:17:01;5.40;98.20
59881;DHT22;45751;51.380;10.326;2024-03-25T11:19:28;5.60;98.00
59881;DHT22;45751;51.380;10.326;2024-03-25T11:22:05;5.50;97.60
59881;DHT22;45751;51.380;10.326;2024-03-25T11:24:31;5.60;97.80
59881;DHT22;45751;51.380;10.326;2024-03-25T11:26:57;5.70;96.90
59881;DHT22;45751;51.380;10.326;2024-03-25T11:29:23;5.70;96.80
59881;DHT22;45751;51.380;10.326;2024-03-25T11:31:53;5.80;96.60
59881;DHT22;45751;51.380;10.326;2024-03-25T11:34:19;5.90;95.70
59881;DHT22;45751;51.380;10.326;2024-03-25T11:36:45;5.90;95.40
59881;DHT22;45751;51.380;10.326;2024-03-25T11:39:13;6.00;94.80
59881;DHT22;45751;51.380;10.326;2024-03-25T11:41:40;5.90;94.80
59881;DHT22;45751;51.380;10.326;2024-03-25T11:44:08;5.90;95.60
59881;DHT22;45751;51.380;10.326;2024-03-25T11:46:36;5.90;94.90
59881;DHT22;45751;51.380;10.326;2024-03-25T11:49:12;6.00;95.00
59881;DHT22;45751;51.380;10.326;2024-03-25T11:51:38;5.90;94.90
59881;DHT22;45751;51.380;10.326;2024-03-25T11:54:09;6.00;95.00
59881;DHT22;45751;51.380;10.326;2024-03-25T11:56:36;6.00;95.20
59881;DHT22;45751;51.380;10.326;2024-03-25T11:59:05;6.00;95.70
59881;DHT22;45751;51.380;10.326;2024-03-25T12:01:32;6.00;95.50
59881;DHT22;45751;51.380;10.326;2024-03-25T12:04:15;6.10;94.50
59881;DHT22;45751;51.380;10.326;2024-03-25T12:06:41;6.20;94.60
59881;DHT22;45751;51.380;10.326;2024-03-25T12:09:08;6.10;94.20
59881;DHT22;45751;51.380;10.326;2024-03-25T12:11:52;6.10;93.80
59881;DHT22;45751;51.380;10.326;2024-03-25T12:14:18;6.10;93.90
59881;DHT22;45751;51.380;10.326;2024-03-25T12:16:44;6.10;93.40
59881;DHT22;45751;51.380;10.326;2024-03-25T12:19:10;6.10;93.70
59881;DHT22;45751;51.380;10.326;2024-03-25T12:21:37;6.10;93.90
59881;DHT22;45751;51.380;10.326;2024-03-25T12:24:03;6.10;94.20
59881;DHT22;45751;51.380;10.326;2024-03-25T12:26:31;6.10;94.40
59881;DHT22;45751;51.380;10.326;2024-03-25T12:28:58;6.10;93.80
59881;DHT22;45751;51.380;10.326;2024-03-25T12:31:24;6.20;93.90
59881;DHT22;45751;51.380;10.326;2024-03-25T12:33:50;6.20;94.30
59881;DHT22;45751;51.380;10.326;2024-03-25T12:36:16;6.30;94.10
59881;DHT22;45751;51.380;10.326;2024-03-25T12:38:41;6.40;93.40
59881;DHT22;45751;51.380;10.326;2024-03-25T12:41:10;6.30;93.30
59881;DHT22;45751;51.380;10.326;2024-03-25T12:43:41;6.40;92.90
59881;DHT22;45751;51.380;10.326;2024-03-25T12:46:07;6.40;92.90
59881;DHT22;45751;51.380;10.326;2024-03-25T12:48:35;6.60;93.10
59881;DHT22;45751;51.380;10.326;2024-03-25T12:51:01;6.60;91.60
59881;DHT22;45751;51.380;10.326;2024-03-25T12:53:26;6.70;91.00
59881;DHT22;45751;51.380;10.326;2024-03-25T12:55:52;6.80;90.20
59881;DHT22;45751;51.380;10.326;2024-03-25T12:58:18;6.90;87.80
59881;DHT22;45751;51.380;10.326;2024-03-25T13:00:44;6.90;87.40
59881;DHT22;45751;51.380;10.326;2024-03-25T13:03:10;7.00;83.60
59881;DHT22;45751;51.380;10.326;2024-03-25T13:05:36;7.00;83.10
59881;DHT22;45751;51.380;10.326;2024-03-25T13:08:02;7.10;84.20
59881;DHT22;45751;51.380;10.326;2024-03-25T13:10:29;7.10;81.80
59881;DHT22;45751;51.380;10.326;2024-03-25T13:12:55;7.10;80.10
59881;DHT22;45751;51.380;10.326;2024-03-25T13:15:21;7.10;79.80
59881;DHT22;45751;51.380;10.326;2024-03-25T13:17:47;7.10;80.40
59881;DHT22;45751;51.380;10.326;2024-03-25T13:20:13;7.10;81.50
59881;DHT22;45751;51.380;10.326;2024-03-25T13:22:39;7.10;83.70
59881;DHT22;45751;51.380;10.326;2024-03-25T13:25:06;7.10;82.40
59881;DHT22;45751;51.380;10.326;2024-03-25T13:27:35;7.20;81.30
59881;DHT22;45751;51.380;10.326;2024-03-25T13:30:01;7.30;82.10
59881;DHT22;45751;51.380;10.326;2024-03-25T13:32:26;7.40;84.00
59881;DHT22;45751;51.380;10.326;2024-03-25T13:34:52;7.50;82.80
59881;DHT22;45751;51.380;10.326;2024-03-25T13:37:18;7.60;82.00
59881;DHT22;45751;51.380;10.326;2024-03-25T13:39:44;7.70;77.60
59881;DHT22;45751;51.380;10.326;2024-03-25T13:42:11;7.80;75.30
59881;DHT22;45751;51.380;10.326;2024-03-25T13:44:37;8.00;73.50
59881;DHT22;45751;51.380;10.326;2024-03-25T13:47:03;8.00;71.00
59881;DHT22;45751;51.380;10.326;2024-03-25T13:49:29;8.00;70.40
59881;DHT22;45751;51.380;10.326;2024-03-25T13:51:58;8.10;69.40
59881;DHT22;45751;51.380;10.326;2024-03-25T13:54:27;8.20;71.40
59881;DHT22;45751;51.380;10.326;2024-03-25T13:56:53;8.50;73.70
59881;DHT22;45751;51.380;10.326;2024-03-25T13:59:22;8.80;71.50
59881;DHT22;45751;51.380;10.326;2024-03-25T14:01:47;9.00;69.90
59881;DHT22;45751;51.380;10.326;2024-03-25T14:04:13;9.10;69.10
59881;DHT22;45751;51.380;10.326;2024-03-25T14:06:39;9.30;65.80
59881;DHT22;45751;51.380;10.326;2024-03-25T14:09:06;9.30;64.40
59881;DHT22;45751;51.380;10.326;2024-03-25T14:11:37;9.30;64.40
59881;DHT22;45751;51.380;10.326;2024-03-25T14:14:03;9.20;62.30
59881;DHT22;45751;51.380;10.326;2024-03-25T14:16:31;9.10;62.10
59881;DHT22;45751;51.380;10.326;2024-03-25T14:18:57;9.00;61.00
59881;DHT22;45751;51.380;10.326;2024-03-25T14:21:23;9.00;60.40
59881;DHT22;45751;51.380;10.326;2024-03-25T14:23:49;8.90;59.80
59881;DHT22;45751;51.380;10.326;2024-03-25T14:26:15;8.80;60.00
59881;DHT22;45751;51.380;10.326;2024-03-25T14:28:41;8.80;60.00
59881;DHT22;45751;51.380;10.326;2024-03-25T14:31:07;8.70;60.10
59881;DHT22;45751;51.380;10.326;2024-03-25T14:33:32;8.70;59.80
59881;DHT22;45751;51.380;10.326;2024-03-25T14:35:58;8.70;60.20
59881;DHT22;45751;51.380;10.326;2024-03-25T14:38:24;8.60;60.10
59881;DHT22;45751;51.380;10.326;2024-03-25T14:40:50;8.50;60.60
59881;DHT22;45751;51.380;10.326;2024-03-25T14:43:15;8.50;61.20
59881;DHT22;45751;51.380;10.326;2024-03-25T14:45:45;8.50;61.50
59881;DHT22;45751;51.380;10.326;2024-03-25T14:48:10;8.50;61.40
59881;DHT22;45751;51.380;10.326;2024-03-25T14:50:36;8.50;61.50
59881;DHT22;45751;51.380;10.326;2024-03-25T14:53:03;8.70;62.10
59881;DHT22;45751;51.380;10.326;2024-03-25T14:55:29;8.90;62.10
59881;DHT22;45751;51.380;10.326;2024-03-25T14:57:55;9.10;62.20
59881;DHT22;45751;51.380;10.326;2024-03-25T15:00:21;9.20;60.70
59881;DHT22;45751;51.380;10.326;2024-03-25T15:02:47;9.30;59.70
59881;DHT22;45751;51.380;10.326;2024-03-25T15:05:12;9.30;59.40
59881;DHT22;45751;51.380;10.326;2024-03-25T15:07:38;9.40;59.50
59881;DHT22;45751;51.380;10.326;2024-03-25T15:10:04;9.40;59.40
59881;DHT22;45751;51.380;10.326;2024-03-25T15:12:30;9.50;58.50
59881;DHT22;45751;51.380;10.326;2024-03-25T15:14:56;9.50;58.40
59881;DHT22;45751;51.380;10.326;2024-03-25T15:17:22;9.50;58.30
59881;DHT22;45751;51.380;10.326;2024-03-25T15:19:48;9.50;58.50
59881;DHT22;45751;51.380;10.326;2024-03-25T15:22:13;9.50;58.40
59881;DHT22;45751;51.380;10.326;2024-03-25T15:24:39;9.50;58.10
59881;DHT22;45751;51.380;10.326;2024-03-25T15:27:05;9.40;58.20
59881;DHT22;45751;51.380;10.326;2024-03-25T15:29:30;9.40;58.00